Upstream stations:
Downstream station:
SHEF ID: BFFO2 Cimarron River near Buffalo, OK
STATION TYPE:
Regulating: Stage = 6.00, Flow = 750
PRECIP STAGE RIV-FLOW BAT-LOAD
in ft cfs volt
Ccp-Rev Ccp-Rev Ccp-Rev Ccp-Rev
(US/Central)
01/15 00:00 0.00 3.30 16 12.73
01/15 01:00 0.00 3.29 16 12.65
01/15 02:00 0.00 3.29 16 12.65
01/15 03:00 0.00 3.28 15 12.65
01/15 04:00 0.00 3.27 14 12.57
01/15 05:00 0.00 3.28 15 12.57
01/15 06:00 0.00 3.27 14 12.57
01/15 07:00 0.00 3.26 13 12.49
01/15 08:00 0.00 3.26 13 12.49
01/15 09:00 0.00 3.27 14 12.49
01/15 10:00 0.00 3.25 13 12.81
01/15 11:00 0.00 3.29 16 13.05
01/15 12:00 0.00 3.25 13 13.13
01/15 13:00 0.00 3.27 14 13.68
01/15 14:00 0.00 3.25 13 13.60
01/15 15:00 0.00 3.26 13 13.60
01/15 16:00 0.00 3.23 11 13.53
01/15 17:00 0.00 3.25 13 13.53
01/15 18:00 0.00 3.24 12 13.37
01/15 19:00 0.00 3.22 11 12.97
01/15 20:00 0.00 3.22 11 12.81
01/15 21:00 0.00 3.21 10 12.81
01/15 22:00 0.00 3.20 10 12.73
01/15 23:00 0.00 3.18 9 12.65